Time;durP1;ratioP1;P1;durP2;ratioP2;P2;SDS_P1;SDS_P2;PMS_P1;PMS_P2;Temp;Humidity;BMP_temperature;BMP_pressure;BME280_temperature;BME280_humidity;BME280_pressure;Samples;Min_cycle;Max_cycle;Signal;HPM_P1;HPM_P2
2023/05/20 00:00:12;;;;;;;5.72;3.30;;;;;;;;;;6281594;22;20030;-85
2023/05/20 00:02:38;;;;;;;6.93;3.50;;;;;;;;;;6281269;22;20021;-85
2023/05/20 00:05:04;;;;;;;5.53;3.22;;;;;;;;;;6307358;22;20026;-85
2023/05/20 00:07:30;;;;;;;6.25;3.80;;;;;;;;;;6308391;22;20011;-84
2023/05/20 00:09:56;;;;;;;5.72;3.67;;;;;;;;;;6307703;22;20019;-85
2023/05/20 00:12:22;;;;;;;6.93;3.42;;;;;;;;;;6309063;22;20012;-84
2023/05/20 00:14:48;;;;;;;6.40;4.05;;;;;;;;;;6307294;22;20011;-85
2023/05/20 00:17:15;;;;;;;8.18;3.85;;;;;;;;;;6307228;22;20504;-84
2023/05/20 00:19:41;;;;;;;6.13;3.92;;;;;;;;;;6307295;22;20456;-85
2023/05/20 00:22:07;;;;;;;6.32;4.05;;;;;;;;;;6308255;22;20077;-84
2023/05/20 00:24:33;;;;;;;5.47;3.85;;;;;;;;;;6307079;22;20016;-83
2023/05/20 00:26:59;;;;;;;5.40;3.72;;;;;;;;;;6307332;22;20047;-85
2023/05/20 00:29:27;;;;;;;7.10;4.30;;;;;;;;;;6281227;22;20019;-85
2023/05/20 00:31:53;;;;;;;5.10;3.60;;;;;;;;;;6307078;22;20020;-85
2023/05/20 00:34:19;;;;;;;5.57;3.70;;;;;;;;;;6307119;22;20023;-85
2023/05/20 00:36:45;;;;;;;6.03;3.60;;;;;;;;;;6307030;22;20472;-85
2023/05/20 00:39:12;;;;;;;5.78;3.53;;;;;;;;;;6281513;22;20088;-85
2023/05/20 00:41:38;;;;;;;8.90;4.22;;;;;;;;;;6307266;22;20019;-85
2023/05/20 00:44:04;;;;;;;6.57;3.42;;;;;;;;;;6307039;22;20069;-85
2023/05/20 00:46:30;;;;;;;6.88;3.95;;;;;;;;;;6306931;22;20015;-85
2023/05/20 00:48:57;;;;;;;5.20;3.70;;;;;;;;;;6282318;22;20413;-85
2023/05/20 00:51:23;;;;;;;4.93;4.25;;;;;;;;;;6282232;22;20149;-85
2023/05/20 00:53:50;;;;;;;8.05;4.03;;;;;;;;;;6281099;22;20022;-85
2023/05/20 00:56:17;;;;;;;6.63;4.68;;;;;;;;;;6280776;22;20011;-85
2023/05/20 00:58:43;;;;;;;9.50;4.50;;;;;;;;;;6306800;22;20116;-85
2023/05/20 01:01:09;;;;;;;10.25;4.25;;;;;;;;;;6308544;22;20487;-85
2023/05/20 01:03:35;;;;;;;6.65;4.13;;;;;;;;;;6306467;22;20023;-84
2023/05/20 01:06:02;;;;;;;7.00;4.40;;;;;;;;;;6308183;22;20023;-85
2023/05/20 01:08:28;;;;;;;9.02;4.35;;;;;;;;;;6306678;22;20023;-85
2023/05/20 01:10:58;;;;;;;8.43;4.50;;;;;;;;;;6308198;22;20015;-85
2023/05/20 01:13:26;;;;;;;6.13;4.35;;;;;;;;;;6307768;22;20021;-85
2023/05/20 01:15:55;;;;;;;6.82;3.75;;;;;;;;;;6306738;22;20050;-85
2023/05/20 01:18:24;;;;;;;8.20;4.70;;;;;;;;;;6280807;22;20026;-86
2023/05/20 01:20:53;;;;;;;7.88;3.75;;;;;;;;;;6281122;22;20094;-86
2023/05/20 01:23:20;;;;;;;10.80;4.15;;;;;;;;;;6306945;22;20076;-85
2023/05/20 01:25:46;;;;;;;4.82;4.22;;;;;;;;;;6306500;22;20016;-85
2023/05/20 01:28:16;;;;;;;4.63;3.95;;;;;;;;;;6281840;22;20019;-86
2023/05/20 01:30:45;;;;;;;6.63;4.63;;;;;;;;;;6306845;22;20015;-85
2023/05/20 01:33:12;;;;;;;6.80;3.72;;;;;;;;;;6281067;22;20023;-85
2023/05/20 01:35:40;;;;;;;5.38;3.97;;;;;;;;;;6307595;22;20359;-86
2023/05/20 01:38:06;;;;;;;5.90;4.35;;;;;;;;;;6280372;22;20023;-86
2023/05/20 01:40:33;;;;;;;4.13;3.42;;;;;;;;;;6307232;22;20019;-86
2023/05/20 01:43:00;;;;;;;7.20;4.22;;;;;;;;;;6280684;22;20019;-85
2023/05/20 01:45:26;;;;;;;4.35;3.40;;;;;;;;;;6280592;22;20560;-83
2023/05/20 01:47:52;;;;;;;7.00;3.45;;;;;;;;;;6306432;22;20015;-85
2023/05/20 01:50:18;;;;;;;5.25;4.28;;;;;;;;;;6307991;22;20019;-86
2023/05/20 01:52:44;;;;;;;6.43;3.72;;;;;;;;;;6306727;22;20027;-85
2023/05/20 01:55:10;;;;;;;9.13;3.72;;;;;;;;;;6306435;22;20022;-85
2023/05/20 01:57:36;;;;;;;6.15;3.42;;;;;;;;;;6307503;22;20011;-86
2023/05/20 02:00:03;;;;;;;6.32;3.40;;;;;;;;;;6306488;22;20045;-86
2023/05/20 02:02:29;;;;;;;5.68;3.55;;;;;;;;;;6306129;22;20080;-85
2023/05/20 02:04:55;;;;;;;5.47;3.42;;;;;;;;;;6306811;22;20024;-85
2023/05/20 02:07:21;;;;;;;6.32;3.75;;;;;;;;;;6281477;22;20122;-85
2023/05/20 02:09:47;;;;;;;6.07;3.53;;;;;;;;;;6308442;22;20449;-85
2023/05/20 02:12:16;;;;;;;4.05;3.17;;;;;;;;;;6282854;22;20434;-85
2023/05/20 02:14:46;;;;;;;4.15;3.38;;;;;;;;;;6307969;22;20019;-85
2023/05/20 02:17:16;;;;;;;5.32;3.80;;;;;;;;;;6308327;22;20012;-85
2023/05/20 02:19:42;;;;;;;5.78;3.38;;;;;;;;;;6282494;22;20120;-85
2023/05/20 02:22:08;;;;;;;4.70;2.80;;;;;;;;;;6282528;22;20022;-85
2023/05/20 02:24:34;;;;;;;3.80;2.90;;;;;;;;;;6308544;22;20066;-85
2023/05/20 02:27:02;;;;;;;6.72;3.50;;;;;;;;;;6282799;22;20022;-85
2023/05/20 02:29:28;;;;;;;6.55;3.10;;;;;;;;;;6309212;22;20142;-85
2023/05/20 02:31:54;;;;;;;6.45;3.20;;;;;;;;;;6283298;22;20018;-85
2023/05/20 02:34:20;;;;;;;4.97;3.30;;;;;;;;;;6308275;22;20011;-85
2023/05/20 02:36:46;;;;;;;5.03;3.30;;;;;;;;;;6308156;22;20026;-85
2023/05/20 02:39:12;;;;;;;3.45;3.15;;;;;;;;;;6308078;22;20011;-85
2023/05/20 02:41:38;;;;;;;5.93;3.38;;;;;;;;;;6282574;22;20314;-85
2023/05/20 02:44:04;;;;;;;3.38;2.83;;;;;;;;;;6308108;22;20022;-87
2023/05/20 02:46:31;;;;;;;7.25;3.15;;;;;;;;;;6308373;22;20472;-85
2023/05/20 02:48:57;;;;;;;4.55;2.92;;;;;;;;;;6308104;22;20019;-85
2023/05/20 02:51:23;;;;;;;3.75;2.33;;;;;;;;;;6307994;22;20011;-86
2023/05/20 02:53:49;;;;;;;4.45;2.95;;;;;;;;;;6283202;22;20023;-86
2023/05/20 02:56:20;;;;;;;3.42;2.97;;;;;;;;;;6307899;22;20011;-86
2023/05/20 02:58:46;;;;;;;4.07;2.72;;;;;;;;;;6307914;22;20019;-86
2023/05/20 03:01:12;;;;;;;4.65;3.08;;;;;;;;;;6308063;22;20023;-86
2023/05/20 03:03:39;;;;;;;6.68;2.83;;;;;;;;;;6307861;22;20011;-84
2023/05/20 03:06:05;;;;;;;3.90;2.58;;;;;;;;;;6309343;22;20050;-85
2023/05/20 03:08:35;;;;;;;5.43;2.42;;;;;;;;;;6307703;22;20077;-85
2023/05/20 03:11:02;;;;;;;8.00;2.85;;;;;;;;;;6308764;22;20019;-85
2023/05/20 03:13:28;;;;;;;5.60;2.83;;;;;;;;;;6308427;22;20062;-85
2023/05/20 03:15:54;;;;;;;4.10;2.63;;;;;;;;;;6307681;22;20139;-84
2023/05/20 03:18:20;;;;;;;4.78;2.40;;;;;;;;;;6307214;22;20015;-85
2023/05/20 03:20:46;;;;;;;3.58;2.78;;;;;;;;;;6281918;22;20019;-84
2023/05/20 03:23:13;;;;;;;3.15;2.05;;;;;;;;;;6307325;22;20090;-85
2023/05/20 03:25:40;;;;;;;4.10;2.10;;;;;;;;;;6281850;22;20016;-84
2023/05/20 03:28:06;;;;;;;5.25;2.65;;;;;;;;;;6282809;22;20311;-84
2023/05/20 03:30:32;;;;;;;2.95;2.47;;;;;;;;;;6307789;22;20043;-84
2023/05/20 03:32:58;;;;;;;4.57;2.13;;;;;;;;;;6281818;22;20023;-84
2023/05/20 03:35:25;;;;;;;4.57;2.33;;;;;;;;;;6309630;22;20094;-84
2023/05/20 03:37:52;;;;;;;6.70;2.58;;;;;;;;;;6309123;22;20020;-85
2023/05/20 03:40:19;;;;;;;3.17;1.88;;;;;;;;;;6307442;22;20076;-84
2023/05/20 03:42:46;;;;;;;2.47;1.90;;;;;;;;;;6307796;22;20022;-84
2023/05/20 03:45:12;;;;;;;3.30;2.60;;;;;;;;;;6307832;22;20078;-84
2023/05/20 03:47:38;;;;;;;3.78;1.95;;;;;;;;;;6309042;22;20015;-84
2023/05/20 03:50:05;;;;;;;4.05;1.80;;;;;;;;;;6282434;22;20015;-84
2023/05/20 03:52:31;;;;;;;4.25;2.15;;;;;;;;;;6307334;22;20340;-84
2023/05/20 03:54:57;;;;;;;5.35;2.25;;;;;;;;;;6282520;22;20031;-84
2023/05/20 03:57:23;;;;;;;4.60;2.10;;;;;;;;;;6308893;22;20026;-84
2023/05/20 03:59:50;;;;;;;2.40;2.10;;;;;;;;;;6307282;22;20011;-84
2023/05/20 04:02:16;;;;;;;3.55;1.73;;;;;;;;;;6281501;22;20023;-84
2023/05/20 04:04:42;;;;;;;4.35;1.60;;;;;;;;;;6282526;22;20106;-84
2023/05/20 04:07:11;;;;;;;5.07;2.10;;;;;;;;;;6307192;22;20019;-84
2023/05/20 04:09:38;;;;;;;2.53;2.00;;;;;;;;;;6281492;22;20030;-84
2023/05/20 04:12:04;;;;;;;3.30;1.58;;;;;;;;;;6307117;22;20022;-84
2023/05/20 04:14:33;;;;;;;3.38;1.83;;;;;;;;;;6281289;22;20525;-84
2023/05/20 04:17:00;;;;;;;3.97;1.90;;;;;;;;;;6308656;22;20342;-84
2023/05/20 04:19:27;;;;;;;3.40;2.22;;;;;;;;;;6307017;22;20030;-83
2023/05/20 04:21:53;;;;;;;3.92;1.95;;;;;;;;;;6307445;22;20023;-83
2023/05/20 04:24:23;;;;;;;2.13;1.85;;;;;;;;;;6307120;22;20023;-83
2023/05/20 04:26:50;;;;;;;2.22;1.92;;;;;;;;;;6308023;22;20011;-83
2023/05/20 04:29:17;;;;;;;2.35;1.77;;;;;;;;;;6307317;22;20050;-84
2023/05/20 04:31:44;;;;;;;4.65;1.58;;;;;;;;;;6306858;22;20019;-83
2023/05/20 04:34:11;;;;;;;3.78;1.85;;;;;;;;;;6281223;22;20019;-84
2023/05/20 04:36:37;;;;;;;2.20;1.42;;;;;;;;;;6281438;22;20446;-84
2023/05/20 04:39:06;;;;;;;2.95;1.40;;;;;;;;;;6307272;22;20026;-84
2023/05/20 04:41:34;;;;;;;3.33;1.70;;;;;;;;;;6280968;22;20018;-84
2023/05/20 04:44:00;;;;;;;1.70;1.40;;;;;;;;;;6281132;22;20023;-84
2023/05/20 04:46:27;;;;;;;3.42;1.52;;;;;;;;;;6306831;22;20016;-84
2023/05/20 04:48:53;;;;;;;2.30;1.33;;;;;;;;;;6308015;22;20015;-83
2023/05/20 04:51:19;;;;;;;2.80;1.73;;;;;;;;;;6280989;22;20322;-83
2023/05/20 04:53:45;;;;;;;3.10;1.00;;;;;;;;;;6306771;22;20026;-84
2023/05/20 04:56:12;;;;;;;2.00;1.13;;;;;;;;;;6281301;22;20015;-84
2023/05/20 04:58:38;;;;;;;3.60;1.38;;;;;;;;;;6307133;22;20098;-84
2023/05/20 05:01:04;;;;;;;5.38;2.25;;;;;;;;;;6306784;22;20018;-84
2023/05/20 05:03:30;;;;;;;3.63;1.10;;;;;;;;;;6280635;22;20015;-85
2023/05/20 05:05:57;;;;;;;1.42;0.98;;;;;;;;;;6307723;22;20064;-85
2023/05/20 05:08:23;;;;;;;3.10;1.25;;;;;;;;;;6280941;22;20388;-85
2023/05/20 05:10:49;;;;;;;2.10;1.10;;;;;;;;;;6308055;22;20049;-85
2023/05/20 05:13:15;;;;;;;2.67;1.15;;;;;;;;;;6307013;22;20326;-85
2023/05/20 05:15:42;;;;;;;2.83;1.20;;;;;;;;;;6306997;22;20050;-85
2023/05/20 05:18:08;;;;;;;2.10;1.02;;;;;;;;;;6307689;22;20012;-85
2023/05/20 05:20:34;;;;;;;3.72;0.80;;;;;;;;;;6306290;22;20011;-85
2023/05/20 05:23:00;;;;;;;4.32;0.90;;;;;;;;;;6281264;22;20019;-84
2023/05/20 05:25:26;;;;;;;5.10;1.20;;;;;;;;;;6281116;22;20076;-84
2023/05/20 05:27:54;;;;;;;4.40;0.85;;;;;;;;;;6280802;22;20019;-85
2023/05/20 05:30:20;;;;;;;1.70;0.80;;;;;;;;;;6306573;22;20015;-85
2023/05/20 05:32:47;;;;;;;3.58;0.55;;;;;;;;;;6307116;22;20510;-85
2023/05/20 05:35:13;;;;;;;2.22;0.70;;;;;;;;;;6306578;22;20059;-85
2023/05/20 05:37:39;;;;;;;2.97;1.00;;;;;;;;;;6306955;22;20362;-85
2023/05/20 05:40:07;;;;;;;1.70;0.80;;;;;;;;;;6308100;22;20019;-85
2023/05/20 05:42:33;;;;;;;2.58;0.70;;;;;;;;;;6281723;22;20344;-85
2023/05/20 05:44:59;;;;;;;3.70;0.60;;;;;;;;;;6308657;22;20015;-86
2023/05/20 05:47:30;;;;;;;1.05;0.50;;;;;;;;;;6282837;22;20022;-85
2023/05/20 05:49:56;;;;;;;2.25;0.57;;;;;;;;;;6283845;22;20043;-85
2023/05/20 05:52:22;;;;;;;1.15;0.88;;;;;;;;;;6282913;22;20015;-85
2023/05/20 05:54:48;;;;;;;1.42;0.55;;;;;;;;;;6308608;22;20081;-85
2023/05/20 05:57:14;;;;;;;2.55;0.60;;;;;;;;;;6283059;22;20019;-85
2023/05/20 05:59:40;;;;;;;2.60;0.63;;;;;;;;;;6308586;22;20060;-85
2023/05/20 06:02:08;;;;;;;0.90;0.68;;;;;;;;;;6282530;22;20022;-84
2023/05/20 06:04:34;;;;;;;1.75;0.40;;;;;;;;;;6283589;22;20318;-85
2023/05/20 06:07:01;;;;;;;3.22;0.43;;;;;;;;;;6308692;22;20018;-85
2023/05/20 06:09:27;;;;;;;2.13;0.60;;;;;;;;;;6308516;22;20015;-85
2023/05/20 06:11:53;;;;;;;1.80;0.50;;;;;;;;;;6282857;22;20065;-84
2023/05/20 06:14:19;;;;;;;4.20;0.65;;;;;;;;;;6282878;22;20441;-83
2023/05/20 06:16:45;;;;;;;1.13;0.52;;;;;;;;;;6282716;22;20023;-85
2023/05/20 06:19:11;;;;;;;3.20;0.57;;;;;;;;;;6308720;22;20015;-84
2023/05/20 06:21:37;;;;;;;2.33;0.40;;;;;;;;;;6308406;22;20023;-84
2023/05/20 06:24:04;;;;;;;1.70;0.60;;;;;;;;;;6309982;22;20019;-84
2023/05/20 06:26:30;;;;;;;1.40;0.52;;;;;;;;;;6307919;22;20015;-84
2023/05/20 06:28:56;;;;;;;2.83;0.55;;;;;;;;;;6282899;22;20015;-84
2023/05/20 06:31:22;;;;;;;1.25;0.50;;;;;;;;;;6308139;22;20333;-85
2023/05/20 06:33:48;;;;;;;1.83;0.55;;;;;;;;;;6282577;22;20023;-85
2023/05/20 06:36:14;;;;;;;0.80;0.50;;;;;;;;;;6283360;22;20023;-85
2023/05/20 06:38:40;;;;;;;1.83;0.40;;;;;;;;;;6282466;22;20076;-85
2023/05/20 06:41:06;;;;;;;1.77;0.57;;;;;;;;;;6308106;22;20019;-85
2023/05/20 06:43:33;;;;;;;2.85;0.57;;;;;;;;;;6282356;22;20341;-85
2023/05/20 06:45:59;;;;;;;1.38;0.60;;;;;;;;;;6308373;22;20364;-85
2023/05/20 06:48:25;;;;;;;1.23;0.50;;;;;;;;;;6282271;22;20015;-84
2023/05/20 06:50:51;;;;;;;0.90;0.52;;;;;;;;;;6282041;22;20023;-85
2023/05/20 06:53:17;;;;;;;1.63;0.60;;;;;;;;;;6307355;22;20012;-85
2023/05/20 06:55:43;;;;;;;1.95;0.57;;;;;;;;;;6307872;22;20318;-84
2023/05/20 06:58:09;;;;;;;2.63;0.40;;;;;;;;;;6308882;22;20015;-85
2023/05/20 07:00:36;;;;;;;1.10;0.70;;;;;;;;;;6309046;22;20081;-85
2023/05/20 07:03:02;;;;;;;2.45;0.52;;;;;;;;;;6308034;22;20049;-84
2023/05/20 07:05:28;;;;;;;2.10;0.60;;;;;;;;;;6307832;22;20023;-84
2023/05/20 07:07:54;;;;;;;1.75;0.60;;;;;;;;;;6307877;22;20016;-84
2023/05/20 07:10:20;;;;;;;1.10;0.60;;;;;;;;;;6307890;22;20011;-84
2023/05/20 07:12:46;;;;;;;2.60;1.10;;;;;;;;;;6308760;22;20015;-84
2023/05/20 07:15:12;;;;;;;2.15;0.88;;;;;;;;;;6308148;22;20016;-84
2023/05/20 07:17:39;;;;;;;1.70;0.50;;;;;;;;;;6282077;22;20437;-85
2023/05/20 07:20:05;;;;;;;1.77;0.70;;;;;;;;;;6307345;22;20023;-84
2023/05/20 07:22:31;;;;;;;1.40;0.60;;;;;;;;;;6281891;22;20027;-84
2023/05/20 07:24:59;;;;;;;1.23;0.60;;;;;;;;;;6282011;22;20022;-85
2023/05/20 07:27:25;;;;;;;1.33;0.82;;;;;;;;;;6282149;22;20019;-85
2023/05/20 07:29:51;;;;;;;1.75;0.70;;;;;;;;;;6307674;22;20016;-85
2023/05/20 07:32:17;;;;;;;2.15;0.43;;;;;;;;;;6309209;22;20073;-85
2023/05/20 07:34:43;;;;;;;1.90;0.70;;;;;;;;;;6307208;22;20015;-84
2023/05/20 07:37:11;;;;;;;1.27;0.60;;;;;;;;;;6307228;22;20012;-84
2023/05/20 07:39:37;;;;;;;0.82;0.70;;;;;;;;;;6307590;22;20023;-85
2023/05/20 07:42:04;;;;;;;1.35;0.73;;;;;;;;;;6307171;22;20019;-84
2023/05/20 07:44:30;;;;;;;2.65;0.60;;;;;;;;;;6307598;22;20019;-84
2023/05/20 07:46:56;;;;;;;1.63;0.93;;;;;;;;;;6282909;22;20019;-84
2023/05/20 07:49:22;;;;;;;2.05;0.60;;;;;;;;;;6307720;22;20049;-84
2023/05/20 07:51:48;;;;;;;1.15;0.63;;;;;;;;;;6308407;22;20029;-85
2023/05/20 07:54:15;;;;;;;1.27;0.52;;;;;;;;;;6308426;22;20012;-84
2023/05/20 07:56:41;;;;;;;1.10;0.60;;;;;;;;;;6307619;22;20089;-85
2023/05/20 07:59:07;;;;;;;0.98;0.55;;;;;;;;;;6307332;22;20019;-85
2023/05/20 08:01:33;;;;;;;1.77;0.90;;;;;;;;;;6308968;22;20025;-85
2023/05/20 08:03:59;;;;;;;1.77;0.80;;;;;;;;;;6307788;22;20334;-85
2023/05/20 08:06:26;;;;;;;0.68;0.50;;;;;;;;;;6307415;22;20022;-85
2023/05/20 08:08:55;;;;;;;1.50;0.60;;;;;;;;;;6307268;22;20015;-85
2023/05/20 08:11:21;;;;;;;2.88;0.70;;;;;;;;;;6307113;22;20050;-85
2023/05/20 08:13:47;;;;;;;0.90;0.70;;;;;;;;;;6307117;22;20015;-84
2023/05/20 08:16:14;;;;;;;4.00;0.70;;;;;;;;;;6308677;22;20020;-85
2023/05/20 08:18:40;;;;;;;0.93;0.70;;;;;;;;;;6281410;22;20027;-85
2023/05/20 08:21:06;;;;;;;0.90;0.80;;;;;;;;;;6308162;22;20022;-85
2023/05/20 08:23:33;;;;;;;1.75;0.80;;;;;;;;;;6282245;22;20019;-85
2023/05/20 08:26:01;;;;;;;3.50;0.73;;;;;;;;;;6308572;22;20023;-85
2023/05/20 08:28:30;;;;;;;2.03;0.90;;;;;;;;;;6280854;22;20017;-85
2023/05/20 08:31:01;;;;;;;1.10;0.60;;;;;;;;;;6309622;22;20019;-84
2023/05/20 08:33:27;;;;;;;1.30;0.65;;;;;;;;;;6308089;22;20015;-84
2023/05/20 08:35:53;;;;;;;3.55;0.60;;;;;;;;;;6308512;22;20337;-84
2023/05/20 08:38:19;;;;;;;2.33;0.85;;;;;;;;;;6307365;22;20057;-85
2023/05/20 08:40:45;;;;;;;2.67;0.80;;;;;;;;;;6307273;22;20023;-84
2023/05/20 08:43:11;;;;;;;1.65;0.60;;;;;;;;;;6306916;22;20023;-84
2023/05/20 08:45:38;;;;;;;0.80;0.55;;;;;;;;;;6308484;22;20019;-83
2023/05/20 08:48:04;;;;;;;2.95;0.65;;;;;;;;;;6281068;22;20016;-83
2023/05/20 08:50:31;;;;;;;2.40;0.60;;;;;;;;;;6307780;22;20016;-83
2023/05/20 08:52:57;;;;;;;2.63;0.70;;;;;;;;;;6307050;22;20326;-83
2023/05/20 08:55:39;;;;;;;2.65;0.57;;;;;;;;;;6306280;22;20015;-84
2023/05/20 08:58:05;;;;;;;2.55;0.68;;;;;;;;;;6307742;22;20015;-83
2023/05/20 09:00:32;;;;;;;2.92;0.60;;;;;;;;;;6307792;22;20020;-84
2023/05/20 09:02:59;;;;;;;1.42;0.70;;;;;;;;;;6308794;22;20019;-83
2023/05/20 09:05:26;;;;;;;3.67;0.80;;;;;;;;;;6307699;22;20024;-83
2023/05/20 09:07:52;;;;;;;1.65;0.40;;;;;;;;;;6306602;22;20022;-82
2023/05/20 09:10:18;;;;;;;1.42;0.50;;;;;;;;;;6306400;22;20472;-82
2023/05/20 09:12:44;;;;;;;3.22;0.77;;;;;;;;;;6281056;22;20436;-82
2023/05/20 09:15:11;;;;;;;2.22;0.60;;;;;;;;;;6281100;22;20023;-82
2023/05/20 09:17:38;;;;;;;2.00;0.50;;;;;;;;;;6307888;22;20382;-82
2023/05/20 09:20:07;;;;;;;2.00;0.50;;;;;;;;;;6308172;22;20350;-82
2023/05/20 09:22:34;;;;;;;4.20;0.65;;;;;;;;;;6308065;22;20018;-82
2023/05/20 09:25:00;;;;;;;4.78;0.95;;;;;;;;;;6306561;22;20054;-82
2023/05/20 09:27:26;;;;;;;3.90;0.65;;;;;;;;;;6280679;22;20051;-81
2023/05/20 09:29:52;;;;;;;1.13;0.52;;;;;;;;;;6308490;22;20023;-82
2023/05/20 09:32:20;;;;;;;4.82;0.50;;;;;;;;;;6306420;22;20015;-83
2023/05/20 09:34:47;;;;;;;1.88;0.50;;;;;;;;;;6306556;22;20026;-82
2023/05/20 09:37:14;;;;;;;1.92;0.60;;;;;;;;;;6308014;22;20072;-82
2023/05/20 09:39:52;;;;;;;2.85;0.40;;;;;;;;;;6306570;22;20053;-81
2023/05/20 09:42:22;;;;;;;1.23;0.40;;;;;;;;;;6308030;22;20061;-81
2023/05/20 09:44:50;;;;;;;3.55;0.73;;;;;;;;;;6308407;22;20015;-83
2023/05/20 09:47:16;;;;;;;3.25;0.75;;;;;;;;;;6306583;22;20027;-82
2023/05/20 09:49:43;;;;;;;1.70;0.50;;;;;;;;;;6306834;22;20311;-82
2023/05/20 09:52:09;;;;;;;2.45;0.55;;;;;;;;;;6308434;22;20401;-81
2023/05/20 09:54:36;;;;;;;2.75;0.40;;;;;;;;;;6308066;22;20442;-81
2023/05/20 09:57:02;;;;;;;1.13;0.45;;;;;;;;;;6306361;22;20030;-82
2023/05/20 09:59:29;;;;;;;1.65;0.50;;;;;;;;;;6307985;22;20026;-81
2023/05/20 10:01:55;;;;;;;2.92;0.57;;;;;;;;;;6306519;22;20015;-82
2023/05/20 10:04:22;;;;;;;1.50;0.60;;;;;;;;;;6280549;22;20112;-82
2023/05/20 10:07:05;;;;;;;2.30;0.50;;;;;;;;;;6308704;22;20015;-82
2023/05/20 10:09:47;;;;;;;1.92;0.70;;;;;;;;;;6309762;22;20027;-82
2023/05/20 10:12:25;;;;;;;2.38;0.50;;;;;;;;;;6306255;22;20047;-82
2023/05/20 10:15:10;;;;;;;1.13;0.40;;;;;;;;;;6307318;22;20015;-82
2023/05/20 10:17:47;;;;;;;2.25;0.40;;;;;;;;;;6305440;22;20018;-81
2023/05/20 10:20:14;;;;;;;1.08;0.40;;;;;;;;;;6307635;22;20011;-81
2023/05/20 10:22:40;;;;;;;2.08;0.60;;;;;;;;;;6279482;22;20011;-82
2023/05/20 10:25:07;;;;;;;3.72;0.50;;;;;;;;;;6305579;22;20437;-81
2023/05/20 10:27:46;;;;;;;1.38;0.50;;;;;;;;;;6307385;22;20011;-82
2023/05/20 10:30:15;;;;;;;1.23;0.50;;;;;;;;;;6309014;22;20456;-81
2023/05/20 10:32:48;;;;;;;1.83;0.40;;;;;;;;;;6309747;22;20015;-81
2023/05/20 10:35:20;;;;;;;2.70;0.30;;;;;;;;;;6309725;22;20348;-82
2023/05/20 10:37:49;;;;;;;3.47;0.40;;;;;;;;;;6308269;22;20019;-82
2023/05/20 10:40:17;;;;;;;2.63;0.40;;;;;;;;;;6309375;22;20508;-81
2023/05/20 10:42:44;;;;;;;2.50;0.30;;;;;;;;;;6309740;22;20011;-81
2023/05/20 10:45:11;;;;;;;2.75;0.50;;;;;;;;;;6310448;22;20011;-82
2023/05/20 10:47:41;;;;;;;3.35;0.40;;;;;;;;;;6309667;22;20022;-82
2023/05/20 10:50:08;;;;;;;0.90;0.25;;;;;;;;;;6308425;22;20011;-82
2023/05/20 10:52:36;;;;;;;3.20;0.38;;;;;;;;;;6309170;22;20421;-81
2023/05/20 10:55:03;;;;;;;2.35;0.60;;;;;;;;;;6283269;22;20455;-82
2023/05/20 10:57:31;;;;;;;3.25;0.50;;;;;;;;;;6308934;22;20007;-82
2023/05/20 10:59:57;;;;;;;2.47;0.40;;;;;;;;;;6307989;22;20018;-82
2023/05/20 11:02:25;;;;;;;3.53;0.50;;;;;;;;;;6309294;22;20061;-81
2023/05/20 11:04:52;;;;;;;5.60;0.30;;;;;;;;;;6308564;22;20023;-81
2023/05/20 11:07:28;;;;;;;2.17;0.30;;;;;;;;;;6307520;22;20084;-83
2023/05/20 11:09:57;;;;;;;2.40;0.40;;;;;;;;;;6309242;22;20082;-81
2023/05/20 11:12:24;;;;;;;0.60;0.28;;;;;;;;;;6308865;22;20077;-81
2023/05/20 11:14:50;;;;;;;2.78;0.40;;;;;;;;;;6307058;22;20041;-82
2023/05/20 11:17:18;;;;;;;2.00;0.32;;;;;;;;;;6309453;22;20015;-82
2023/05/20 11:19:44;;;;;;;1.98;0.30;;;;;;;;;;6309265;22;20023;-82
2023/05/20 11:22:10;;;;;;;1.35;0.30;;;;;;;;;;6310344;22;20294;-82
2023/05/20 11:24:37;;;;;;;2.85;0.30;;;;;;;;;;6308442;22;20030;-82
2023/05/20 11:27:04;;;;;;;1.35;0.63;;;;;;;;;;6309065;22;20012;-82
2023/05/20 11:29:31;;;;;;;1.38;0.25;;;;;;;;;;6307633;22;20090;-82
2023/05/20 11:31:57;;;;;;;1.63;0.30;;;;;;;;;;6307571;22;20076;-82
2023/05/20 11:34:23;;;;;;;0.88;0.30;;;;;;;;;;6309204;22;20015;-83
2023/05/20 11:36:57;;;;;;;2.25;0.30;;;;;;;;;;6307821;22;20034;-83
2023/05/20 11:39:23;;;;;;;1.93;0.30;;;;;;;;;;6307676;22;20007;-83
2023/05/20 11:41:49;;;;;;;3.20;0.30;;;;;;;;;;6281857;22;20425;-82
2023/05/20 11:44:16;;;;;;;2.55;0.30;;;;;;;;;;6309268;22;20096;-82
2023/05/20 11:46:42;;;;;;;3.20;0.40;;;;;;;;;;6282152;22;20023;-82
2023/05/20 11:49:09;;;;;;;1.58;0.30;;;;;;;;;;6307558;22;20007;-83
2023/05/20 11:51:37;;;;;;;1.13;0.30;;;;;;;;;;6309031;22;20042;-83
2023/05/20 11:54:04;;;;;;;2.20;0.30;;;;;;;;;;6308532;22;20047;-83
2023/05/20 11:56:31;;;;;;;1.45;0.40;;;;;;;;;;6309100;22;20018;-83
2023/05/20 11:58:57;;;;;;;1.02;0.30;;;;;;;;;;6309764;22;20026;-83
2023/05/20 12:01:23;;;;;;;2.22;0.40;;;;;;;;;;6307865;22;20019;-83
2023/05/20 12:03:49;;;;;;;2.38;0.30;;;;;;;;;;6309612;22;20090;-83
2023/05/20 12:06:17;;;;;;;2.60;0.30;;;;;;;;;;6308547;22;20506;-83
2023/05/20 12:08:43;;;;;;;2.05;0.30;;;;;;;;;;6309627;22;20007;-82
2023/05/20 12:11:09;;;;;;;2.75;0.60;;;;;;;;;;6308863;22;20022;-82
2023/05/20 12:13:35;;;;;;;1.15;0.20;;;;;;;;;;6308957;22;20011;-82
2023/05/20 12:16:01;;;;;;;1.60;0.20;;;;;;;;;;6308375;22;20018;-82
2023/05/20 12:18:27;;;;;;;2.00;0.35;;;;;;;;;;6307422;22;20086;-82
2023/05/20 12:20:53;;;;;;;4.55;0.28;;;;;;;;;;6308771;22;20022;-82
2023/05/20 12:23:20;;;;;;;5.18;0.30;;;;;;;;;;6281429;22;20034;-82
2023/05/20 12:25:48;;;;;;;2.35;0.40;;;;;;;;;;6308755;22;20015;-82
2023/05/20 12:28:15;;;;;;;2.22;0.40;;;;;;;;;;6308785;22;20015;-82
2023/05/20 12:30:41;;;;;;;1.40;0.30;;;;;;;;;;6282469;22;20015;-82
2023/05/20 12:33:08;;;;;;;3.05;0.40;;;;;;;;;;6309368;22;20038;-82
2023/05/20 12:35:41;;;;;;;0.65;0.30;;;;;;;;;;6307114;22;20015;-82
2023/05/20 12:38:07;;;;;;;3.15;0.20;;;;;;;;;;6308634;22;20086;-82
2023/05/20 12:40:34;;;;;;;1.17;0.50;;;;;;;;;;6307295;22;20011;-82
2023/05/20 12:43:00;;;;;;;3.17;0.30;;;;;;;;;;6307824;22;20017;-82
2023/05/20 12:45:26;;;;;;;5.07;0.30;;;;;;;;;;6310200;22;20348;-82
2023/05/20 12:47:54;;;;;;;3.05;0.57;;;;;;;;;;6309348;22;20021;-82
2023/05/20 12:50:20;;;;;;;1.42;0.30;;;;;;;;;;6306966;22;20015;-81
2023/05/20 12:52:46;;;;;;;4.65;0.35;;;;;;;;;;6308429;22;20015;-83
2023/05/20 12:55:12;;;;;;;144.70;5.82;;;;;;;;;;6309454;22;20015;-81
2023/05/20 12:57:45;;;;;;;7.65;0.40;;;;;;;;;;6307249;22;20039;-82
2023/05/20 13:00:11;;;;;;;2.40;0.30;;;;;;;;;;6307278;22;20011;-82
2023/05/20 13:02:38;;;;;;;1.58;0.40;;;;;;;;;;6306473;22;20325;-82
2023/05/20 13:05:05;;;;;;;1.35;0.32;;;;;;;;;;6307971;22;20018;-81
2023/05/20 13:07:31;;;;;;;2.92;0.35;;;;;;;;;;6306999;22;20019;-82
2023/05/20 13:09:58;;;;;;;2.22;0.30;;;;;;;;;;6281380;22;20375;-82
2023/05/20 13:12:24;;;;;;;3.35;0.30;;;;;;;;;;6309267;22;20011;-82
2023/05/20 13:14:51;;;;;;;2.28;0.30;;;;;;;;;;6308342;22;20015;-82
2023/05/20 13:17:17;;;;;;;1.85;0.50;;;;;;;;;;6308342;22;20091;-81
2023/05/20 13:19:45;;;;;;;2.50;0.40;;;;;;;;;;6308352;22;20478;-81
2023/05/20 13:22:11;;;;;;;1.25;0.30;;;;;;;;;;6309029;22;20095;-81
2023/05/20 13:24:37;;;;;;;2.10;0.40;;;;;;;;;;6307109;22;20088;-81
2023/05/20 13:27:04;;;;;;;2.70;0.50;;;;;;;;;;6308210;22;20072;-81
2023/05/20 13:29:30;;;;;;;1.13;0.30;;;;;;;;;;6306332;22;20014;-81
2023/05/20 13:31:56;;;;;;;2.50;0.40;;;;;;;;;;6308141;22;20086;-81
2023/05/20 13:34:23;;;;;;;2.17;0.30;;;;;;;;;;6308212;22;20015;-82
2023/05/20 13:36:49;;;;;;;1.73;0.40;;;;;;;;;;6306773;22;20015;-82
2023/05/20 13:39:15;;;;;;;3.20;0.40;;;;;;;;;;6308225;22;20023;-81
2023/05/20 13:41:42;;;;;;;4.75;0.30;;;;;;;;;;6307070;22;20353;-81
2023/05/20 13:44:08;;;;;;;3.58;0.30;;;;;;;;;;6306751;22;20116;-82
2023/05/20 13:46:34;;;;;;;5.10;3.35;;;;;;;;;;6308189;22;20019;-82
2023/05/20 13:49:00;;;;;;;6.82;2.67;;;;;;;;;;6308232;22;20015;-82
2023/05/20 13:51:26;;;;;;;3.22;0.30;;;;;;;;;;6308018;22;20034;-81
2023/05/20 13:53:53;;;;;;;3.35;0.35;;;;;;;;;;6306644;22;20046;-81
2023/05/20 13:56:19;;;;;;;1.88;0.30;;;;;;;;;;6280655;22;20011;-81
2023/05/20 13:58:45;;;;;;;1.55;0.30;;;;;;;;;;6307449;22;20050;-81
2023/05/20 14:01:11;;;;;;;0.93;0.30;;;;;;;;;;6306712;22;20015;-81
2023/05/20 14:03:39;;;;;;;1.10;0.22;;;;;;;;;;6309317;22;20325;-81
2023/05/20 14:06:05;;;;;;;4.93;0.30;;;;;;;;;;6308454;22;20007;-81
2023/05/20 14:08:31;;;;;;;2.30;0.30;;;;;;;;;;6310103;22;20246;-81
2023/05/20 14:10:57;;;;;;;1.98;0.30;;;;;;;;;;6308447;22;20015;-80
2023/05/20 14:13:24;;;;;;;2.05;0.43;;;;;;;;;;6310075;22;20011;-80
2023/05/20 14:15:51;;;;;;;2.70;0.30;;;;;;;;;;6310027;22;20015;-80
2023/05/20 14:18:17;;;;;;;5.05;0.30;;;;;;;;;;6308562;22;20011;-80
2023/05/20 14:20:44;;;;;;;0.95;0.30;;;;;;;;;;6308839;22;20029;-80
2023/05/20 14:23:10;;;;;;;3.25;0.43;;;;;;;;;;6310376;22;20007;-81
2023/05/20 14:25:36;;;;;;;4.63;0.75;;;;;;;;;;6308378;22;20016;-79
2023/05/20 14:28:02;;;;;;;4.05;0.30;;;;;;;;;;6309954;22;20061;-79
2023/05/20 14:30:28;;;;;;;3.38;0.30;;;;;;;;;;6309367;22;20302;-80
2023/05/20 14:32:54;;;;;;;1.20;0.30;;;;;;;;;;6309288;22;20011;-79
2023/05/20 14:35:20;;;;;;;0.65;0.30;;;;;;;;;;6309307;22;20061;-80
2023/05/20 14:37:47;;;;;;;2.38;0.30;;;;;;;;;;6309857;22;20062;-80
2023/05/20 14:40:13;;;;;;;1.38;0.30;;;;;;;;;;6309811;22;20094;-80